Time;durP1;ratioP1;P1;durP2;ratioP2;P2;SDS_P1;SDS_P2;PMS_P1;PMS_P2;Temp;Humidity;BMP_temperature;BMP_pressure;BME280_temperature;BME280_humidity;BME280_pressure;Samples;Min_cycle;Max_cycle;Signal;HPM_P1;HPM_P2
2022/03/05 00:01:19;;;;;;;;;;;;;;;11.93;34.25;99365.06;4455975;31;32647;-83
2022/03/05 00:03:47;;;;;;;;;;;;;;;11.78;34.72;99364.88;4483388;31;33793;-83
2022/03/05 00:06:15;;;;;;;;;;;;;;;12.00;34.26;99365.09;4492914;31;34856;-83
2022/03/05 00:08:47;;;;;;;;;;;;;;;12.04;33.93;99357.34;4491720;31;34903;-83
2022/03/05 00:11:15;;;;;;;;;;;;;;;12.23;34.02;99365.31;4496953;31;34129;-84
2022/03/05 00:13:42;;;;;;;;;;;;;;;12.24;33.92;99365.34;4481921;31;32805;-83
2022/03/05 00:16:09;;;;;;;;;;;;;;;12.11;33.80;99359.16;4497237;31;35349;-82
2022/03/05 00:18:37;;;;;;;;;;;;;;;11.84;34.05;99364.94;4497682;31;34297;-82
2022/03/05 00:21:05;;;;;;;;;;;;;;;11.67;34.42;99361.28;4470145;31;32608;-82
2022/03/05 00:23:32;;;;;;;;;;;;;;;11.78;33.94;99357.06;4497209;31;33734;-83
2022/03/05 00:26:00;;;;;;;;;;;;;;;12.18;33.97;99355.75;4497701;31;34484;-82
2022/03/05 00:28:27;;;;;;;;;;;;;;;12.11;33.99;99361.75;4491691;31;34914;-82
2022/03/05 00:30:58;;;;;;;;;;;;;;;12.26;33.17;99362.75;4496824;31;33044;-82
2022/03/05 00:33:25;;;;;;;;;;;;;;;12.04;33.42;99359.94;4495986;31;34081;-83
2022/03/05 00:35:53;;;;;;;;;;;;;;;12.12;33.33;99350.53;4497044;31;34820;-83
2022/03/05 00:38:21;;;;;;;;;;;;;;;12.31;33.63;99356.75;4495615;31;34072;-83
2022/03/05 00:40:48;;;;;;;;;;;;;;;12.48;33.42;99359.47;4498448;31;34103;-83
2022/03/05 00:43:15;;;;;;;;;;;;;;;12.36;33.48;99355.06;4498753;31;34537;-83
2022/03/05 00:45:42;;;;;;;;;;;;;;;12.12;33.53;99347.03;4496349;31;34520;-83
2022/03/05 00:48:10;;;;;;;;;;;;;;;12.05;33.53;99347.84;4487107;31;35223;-82
2022/03/05 00:50:39;;;;;;;;;;;;;;;12.12;33.29;99349.62;4497327;31;34441;-82
2022/03/05 00:53:06;;;;;;;;;;;;;;;12.12;32.78;99347.91;4496283;31;34283;-82
2022/03/05 00:55:34;;;;;;;;;;;;;;;12.07;32.93;99346.13;4498936;31;34019;-83
2022/03/05 00:58:01;;;;;;;;;;;;;;;12.01;32.88;99338.25;4499233;31;33752;-84
2022/03/05 01:00:28;;;;;;;;;;;;;;;12.27;32.33;99338.50;4497695;31;33858;-84
2022/03/05 01:02:56;;;;;;;;;;;;;;;12.28;32.66;99340.25;4498723;31;35137;-83
2022/03/05 01:05:24;;;;;;;;;;;;;;;12.34;32.82;99340.28;4498648;31;34184;-83
2022/03/05 01:07:51;;;;;;;;;;;;;;;12.15;32.95;99340.13;4499008;31;34920;-82
2022/03/05 01:10:18;;;;;;;;;;;;;;;12.28;32.23;99333.31;4498879;31;32975;-84
2022/03/05 01:12:45;;;;;;;;;;;;;;;12.33;32.25;99330.75;4497498;31;33841;-84
2022/03/05 01:15:13;;;;;;;;;;;;;;;12.17;33.06;99332.38;4496874;31;33972;-82
2022/03/05 01:17:41;;;;;;;;;;;;;;;12.13;32.87;99331.47;4485306;31;34307;-84
2022/03/05 01:20:08;;;;;;;;;;;;;;;12.15;33.02;99327.12;4490174;31;34241;-89
2022/03/05 01:22:36;;;;;;;;;;;;;;;12.49;32.57;99327.41;4491128;31;35088;-83
2022/03/05 01:25:04;;;;;;;;;;;;;;;12.14;33.36;99335.78;4496742;31;34418;-84
2022/03/05 01:27:34;;;;;;;;;;;;;;;11.96;33.38;99327.81;4490118;31;33649;-86
2022/03/05 01:30:06;;;;;;;;;;;;;;;11.92;33.12;99326.06;4488727;31;32842;-85
2022/03/05 01:32:33;;;;;;;;;;;;;;;11.82;33.24;99334.56;4495065;31;33844;-82
2022/03/05 01:35:01;;;;;;;;;;;;;;;11.90;33.54;99332.97;4497554;31;33726;-82
2022/03/05 01:37:28;;;;;;;;;;;;;;;12.14;33.42;99330.59;4488405;31;35233;-86
2022/03/05 01:39:55;;;;;;;;;;;;;;;12.09;32.88;99324.50;4484503;31;34262;-83
2022/03/05 01:42:23;;;;;;;;;;;;;;;12.09;32.91;99327.09;4484411;31;33941;-85
2022/03/05 01:44:50;;;;;;;;;;;;;;;12.00;33.44;99337.37;4499097;31;35127;-83
2022/03/05 01:47:18;;;;;;;;;;;;;;;12.20;33.02;99331.50;4497739;31;34193;-84
2022/03/05 01:49:46;;;;;;;;;;;;;;;12.20;33.29;99337.59;4492222;31;33209;-84
2022/03/05 01:52:14;;;;;;;;;;;;;;;12.11;33.19;99335.75;4491847;31;33736;-88
2022/03/05 01:54:41;;;;;;;;;;;;;;;12.14;33.16;99332.34;4493183;31;33281;-86
2022/03/05 01:57:10;;;;;;;;;;;;;;;12.18;33.30;99337.56;4488244;31;34246;-83
2022/03/05 01:59:38;;;;;;;;;;;;;;;12.23;32.73;99339.31;4494904;31;33532;-84
2022/03/05 02:02:06;;;;;;;;;;;;;;;11.95;33.16;99340.81;4498940;31;34967;-86
2022/03/05 02:04:34;;;;;;;;;;;;;;;12.08;33.24;99340.06;4498438;31;35142;-85
2022/03/05 02:07:01;;;;;;;;;;;;;;;12.11;33.23;99340.97;4499136;31;33510;-86
2022/03/05 02:09:28;;;;;;;;;;;;;;;12.08;32.97;99335.72;4499117;31;33499;-85
2022/03/05 02:11:55;;;;;;;;;;;;;;;12.01;33.50;99349.53;4499244;31;34107;-83
2022/03/05 02:14:23;;;;;;;;;;;;;;;11.92;33.59;99346.84;4499060;31;34935;-84
2022/03/05 02:16:50;;;;;;;;;;;;;;;11.87;33.34;99341.59;4497520;31;34971;-86
2022/03/05 02:19:18;;;;;;;;;;;;;;;11.18;33.72;99335.59;4499109;31;33345;-84
2022/03/05 02:21:46;;;;;;;;;;;;;;;11.58;33.48;99351.63;4499226;31;34776;-84
2022/03/05 02:24:13;;;;;;;;;;;;;;;11.88;33.60;99355.47;4498624;31;35163;-84
2022/03/05 02:26:41;;;;;;;;;;;;;;;11.93;33.60;99356.38;4498477;31;34593;-85
2022/03/05 02:29:08;;;;;;;;;;;;;;;11.86;33.75;99359.78;4484473;31;33452;-84
2022/03/05 02:31:36;;;;;;;;;;;;;;;11.78;33.85;99354.47;4497860;31;35076;-85
2022/03/05 02:34:03;;;;;;;;;;;;;;;11.65;33.92;99360.37;4493755;31;32884;-85
2022/03/05 02:36:32;;;;;;;;;;;;;;;11.75;33.80;99357.03;4498790;31;34574;-86
2022/03/05 02:38:59;;;;;;;;;;;;;;;11.75;33.58;99358.75;4491509;31;33311;-88
2022/03/05 02:41:26;;;;;;;;;;;;;;;11.82;33.65;99356.25;4498929;31;33726;-84
2022/03/05 02:43:53;;;;;;;;;;;;;;;11.86;33.68;99352.00;4498824;31;34775;-87
2022/03/05 02:46:24;;;;;;;;;;;;;;;11.65;33.52;99358.63;4498384;31;34957;-85
2022/03/05 02:48:53;;;;;;;;;;;;;;;11.47;33.80;99355.81;4489347;31;33535;-84
2022/03/05 02:51:20;;;;;;;;;;;;;;;11.26;33.96;99347.78;4498940;31;33964;-85
2022/03/05 02:53:48;;;;;;;;;;;;;;;11.34;34.21;99357.41;4498751;31;33860;-84
2022/03/05 02:56:15;;;;;;;;;;;;;;;11.45;34.05;99354.94;4498473;31;34156;-86
2022/03/05 02:58:43;;;;;;;;;;;;;;;11.34;34.29;99356.53;4498830;31;33139;-85
2022/03/05 03:01:10;;;;;;;;;;;;;;;11.45;33.98;99352.34;4484423;31;35019;-85
2022/03/05 03:03:38;;;;;;;;;;;;;;;11.65;33.74;99356.03;4498909;31;34427;-85
2022/03/05 03:06:06;;;;;;;;;;;;;;;11.38;33.97;99351.41;4498763;31;34392;-84
2022/03/05 03:08:33;;;;;;;;;;;;;;;10.67;34.58;99352.13;4498813;31;34447;-84
2022/03/05 03:11:01;;;;;;;;;;;;;;;10.80;35.00;99354.94;4498563;31;34270;-84
2022/03/05 03:13:29;;;;;;;;;;;;;;;10.90;34.90;99359.38;4483067;32;35254;-84
2022/03/05 03:15:56;;;;;;;;;;;;;;;11.09;34.80;99355.34;4494470;31;34984;-84
2022/03/05 03:18:23;;;;;;;;;;;;;;;11.27;34.40;99355.56;4497898;31;34313;-85
2022/03/05 03:20:51;;;;;;;;;;;;;;;11.02;34.52;99354.38;4496812;31;33777;-84
2022/03/05 03:23:18;;;;;;;;;;;;;;;11.04;34.57;99363.06;4497948;31;34149;-85
2022/03/05 03:25:45;;;;;;;;;;;;;;;11.16;34.43;99357.16;4498667;31;33888;-85
2022/03/05 03:28:12;;;;;;;;;;;;;;;11.44;33.71;99358.41;4490807;31;32541;-84
2022/03/05 03:30:40;;;;;;;;;;;;;;;11.17;34.16;99353.69;4498212;31;33422;-86
2022/03/05 03:33:07;;;;;;;;;;;;;;;11.16;34.31;99347.66;4497222;31;33928;-85
2022/03/05 03:35:34;;;;;;;;;;;;;;;11.15;34.39;99356.28;4498016;31;33758;-85
2022/03/05 03:38:01;;;;;;;;;;;;;;;11.01;34.51;99355.22;4498170;31;33801;-85
2022/03/05 03:40:28;;;;;;;;;;;;;;;10.93;34.66;99357.72;4498096;31;34228;-85
2022/03/05 03:42:56;;;;;;;;;;;;;;;10.70;35.16;99361.69;4498468;31;35203;-87
2022/03/05 03:45:23;;;;;;;;;;;;;;;10.29;35.16;99353.25;4497354;31;33657;-85
2022/03/05 03:47:51;;;;;;;;;;;;;;;10.39;35.03;99356.03;4498522;31;33445;-85
2022/03/05 03:50:20;;;;;;;;;;;;;;;10.73;35.07;99366.06;4498203;31;33993;-87
2022/03/05 03:52:47;;;;;;;;;;;;;;;10.60;35.20;99359.78;4494904;31;33999;-84
2022/03/05 03:55:18;;;;;;;;;;;;;;;10.64;34.84;99362.44;4487631;31;34644;-85
2022/03/05 03:57:45;;;;;;;;;;;;;;;10.36;35.21;99368.06;4486603;31;33753;-88
2022/03/05 04:00:14;;;;;;;;;;;;;;;10.58;34.87;99362.38;4497521;31;34335;-84
2022/03/05 04:02:41;;;;;;;;;;;;;;;10.18;35.65;99355.63;4497734;31;35211;-86
2022/03/05 04:05:09;;;;;;;;;;;;;;;10.51;34.79;99360.53;4483509;31;34121;-85
2022/03/05 04:10:22;;;;;;;;;;;;;;;10.42;34.98;99355.22;4497552;31;35080;-84
2022/03/05 04:12:49;;;;;;;;;;;;;;;10.33;34.61;99355.03;4485909;31;33796;-88
2022/03/05 04:15:17;;;;;;;;;;;;;;;10.02;34.93;99351.03;4488708;31;34257;-85
2022/03/05 04:17:44;;;;;;;;;;;;;;;10.34;34.85;99364.56;4499320;31;33331;-84
2022/03/05 04:20:12;;;;;;;;;;;;;;;10.62;34.79;99360.72;4492869;31;33882;-84
2022/03/05 04:22:39;;;;;;;;;;;;;;;10.75;34.76;99360.03;4492906;31;35154;-86
2022/03/05 04:25:07;;;;;;;;;;;;;;;10.10;35.66;99370.16;4499855;31;33800;-85
2022/03/05 04:27:34;;;;;;;;;;;;;;;10.17;35.81;99370.28;4499720;31;34264;-84
2022/03/05 04:30:01;;;;;;;;;;;;;;;10.52;34.73;99371.78;4499551;31;34110;-84
2022/03/05 04:32:29;;;;;;;;;;;;;;;10.57;34.97;99373.59;4499504;31;33899;-84
2022/03/05 04:34:56;;;;;;;;;;;;;;;10.66;34.76;99381.50;4498660;31;33767;-84
2022/03/05 04:37:23;;;;;;;;;;;;;;;10.80;34.37;99383.47;4499303;31;34886;-84
2022/03/05 04:39:50;;;;;;;;;;;;;;;10.62;34.62;99371.94;4499407;31;33565;-85
2022/03/05 04:42:18;;;;;;;;;;;;;;;10.99;33.84;99380.28;4499850;31;34546;-85
2022/03/05 04:44:45;;;;;;;;;;;;;;;10.93;33.92;99380.19;4499658;31;34564;-84
2022/03/05 04:47:14;;;;;;;;;;;;;;;10.27;34.22;99380.88;4499866;31;33612;-88
2022/03/05 04:49:42;;;;;;;;;;;;;;;9.75;34.83;99388.50;4499449;31;34234;-84
2022/03/05 04:52:09;;;;;;;;;;;;;;;9.59;35.12;99378.69;4499608;31;34307;-84
2022/03/05 04:54:36;;;;;;;;;;;;;;;9.75;35.38;99391.09;4499802;31;34146;-84
2022/03/05 04:57:04;;;;;;;;;;;;;;;10.27;34.98;99391.25;4499698;31;33069;-84
2022/03/05 04:59:31;;;;;;;;;;;;;;;10.43;34.72;99382.88;4499287;31;34895;-83
2022/03/05 05:02:00;;;;;;;;;;;;;;;10.37;34.84;99382.75;4499099;31;34877;-84
2022/03/05 05:04:27;;;;;;;;;;;;;;;10.61;34.72;99379.72;4499710;31;34343;-84
2022/03/05 05:06:54;;;;;;;;;;;;;;;10.50;34.66;99378.66;4499669;31;33091;-85
2022/03/05 05:09:21;;;;;;;;;;;;;;;10.12;35.19;99384.03;4496325;31;34261;-87
2022/03/05 05:11:49;;;;;;;;;;;;;;;10.50;34.54;99383.84;4499680;31;34421;-87
2022/03/05 05:14:16;;;;;;;;;;;;;;;10.48;34.88;99382.09;4499345;31;33697;-84
2022/03/05 05:16:43;;;;;;;;;;;;;;;10.36;35.22;99387.06;4499400;31;31819;-86
2022/03/05 05:19:27;;;;;;;;;;;;;;;10.46;34.40;99391.56;4499281;31;35070;-84
2022/03/05 05:21:59;;;;;;;;;;;;;;;10.40;34.93;99394.03;4487538;31;34509;-84
2022/03/05 05:24:28;;;;;;;;;;;;;;;10.34;34.45;99396.56;4491596;31;34447;-83
2022/03/05 05:26:56;;;;;;;;;;;;;;;10.25;34.32;99398.97;4498410;31;33104;-88
2022/03/05 05:29:23;;;;;;;;;;;;;;;10.05;34.96;99401.16;4494442;31;34986;-85
2022/03/05 05:32:08;;;;;;;;;;;;;;;10.29;35.04;99397.31;4499061;31;35227;-84
2022/03/05 05:34:35;;;;;;;;;;;;;;;10.64;34.87;99398.75;4499292;31;34848;-87
2022/03/05 05:37:03;;;;;;;;;;;;;;;10.81;34.67;99403.34;4498689;31;33415;-84
2022/03/05 05:39:31;;;;;;;;;;;;;;;9.99;34.43;99401.03;4499619;31;33845;-83
2022/03/05 05:41:58;;;;;;;;;;;;;;;10.29;34.55;99400.75;4499145;31;34031;-84
2022/03/05 05:44:25;;;;;;;;;;;;;;;10.70;33.37;99409.22;4499725;31;35181;-84
2022/03/05 05:46:53;;;;;;;;;;;;;;;10.78;33.55;99400.72;4498114;31;33567;-87
2022/03/05 05:49:20;;;;;;;;;;;;;;;10.35;33.60;99410.38;4483888;31;36898;-84
2022/03/05 05:51:47;;;;;;;;;;;;;;;10.42;33.45;99407.06;4499344;31;35026;-85
2022/03/05 05:54:15;;;;;;;;;;;;;;;10.14;34.95;99410.81;4499235;31;34221;-85
2022/03/05 05:56:42;;;;;;;;;;;;;;;10.47;34.90;99416.63;4498607;31;33427;-84
2022/03/05 05:59:09;;;;;;;;;;;;;;;10.28;34.29;99413.69;4498844;31;34307;-84
2022/03/05 06:01:36;;;;;;;;;;;;;;;10.61;33.64;99419.47;4498864;31;34471;-88
2022/03/05 06:04:04;;;;;;;;;;;;;;;11.03;33.25;99418.41;4498934;31;34384;-84
2022/03/05 06:06:32;;;;;;;;;;;;;;;10.62;33.85;99409.97;4498626;31;33570;-85
2022/03/05 06:08:59;;;;;;;;;;;;;;;11.08;33.30;99426.25;4499301;31;34272;-88
2022/03/05 06:11:26;;;;;;;;;;;;;;;10.79;33.37;99423.19;4499268;31;35330;-85
2022/03/05 06:13:53;;;;;;;;;;;;;;;11.08;32.97;99424.53;4498959;31;34132;-84
2022/03/05 06:16:21;;;;;;;;;;;;;;;11.23;32.55;99418.69;4499285;31;33403;-84
2022/03/05 06:18:48;;;;;;;;;;;;;;;10.69;33.12;99433.44;4498667;31;33924;-85
2022/03/05 06:21:16;;;;;;;;;;;;;;;10.63;33.19;99437.63;4498254;31;33734;-85
2022/03/05 06:23:43;;;;;;;;;;;;;;;10.26;33.40;99436.09;4498195;31;34140;-84
2022/03/05 06:26:10;;;;;;;;;;;;;;;10.73;33.19;99439.53;4498836;31;33891;-84
2022/03/05 06:28:37;;;;;;;;;;;;;;;10.93;32.55;99438.13;4498995;31;34567;-84
2022/03/05 06:31:04;;;;;;;;;;;;;;;11.35;32.96;99441.34;4499077;31;35619;-85
2022/03/05 06:33:32;;;;;;;;;;;;;;;11.39;32.99;99437.94;4498044;31;34891;-85
2022/03/05 06:35:59;;;;;;;;;;;;;;;11.34;32.09;99447.38;4499195;31;33362;-85
2022/03/05 06:38:26;;;;;;;;;;;;;;;11.71;31.63;99446.16;4498276;31;33674;-85
2022/03/05 06:40:54;;;;;;;;;;;;;;;11.74;32.03;99434.91;4498796;31;34869;-84
2022/03/05 06:43:21;;;;;;;;;;;;;;;11.99;31.98;99446.50;4498778;31;33528;-85
2022/03/05 06:45:50;;;;;;;;;;;;;;;11.60;31.96;99443.41;4481541;32;34076;-88
2022/03/05 06:48:17;;;;;;;;;;;;;;;11.62;31.78;99446.88;4492445;31;33789;-85
2022/03/05 06:50:44;;;;;;;;;;;;;;;11.21;32.35;99451.50;4498942;31;34336;-84
2022/03/05 06:53:12;;;;;;;;;;;;;;;11.50;31.79;99441.53;4499063;31;34991;-85
2022/03/05 06:55:39;;;;;;;;;;;;;;;11.81;31.82;99445.41;4498674;31;33561;-85
2022/03/05 06:58:06;;;;;;;;;;;;;;;11.44;31.76;99447.53;4498595;31;34348;-85
2022/03/05 07:00:33;;;;;;;;;;;;;;;11.39;31.41;99450.91;4498168;31;34293;-87
2022/03/05 07:03:02;;;;;;;;;;;;;;;11.48;31.51;99448.47;4498326;31;33649;-86
2022/03/05 07:05:29;;;;;;;;;;;;;;;11.51;31.50;99453.66;4498776;31;33397;-86
2022/03/05 07:07:56;;;;;;;;;;;;;;;11.56;31.68;99451.16;4498978;31;34278;-87
2022/03/05 07:10:24;;;;;;;;;;;;;;;11.41;31.70;99454.41;4498353;31;35304;-85
2022/03/05 07:12:51;;;;;;;;;;;;;;;11.69;30.88;99453.03;4498606;31;34923;-85
2022/03/05 07:15:18;;;;;;;;;;;;;;;12.04;30.60;99445.69;4498797;31;33576;-85
2022/03/05 07:17:46;;;;;;;;;;;;;;;12.22;31.35;99457.16;4497945;31;34161;-85
2022/03/05 07:20:13;;;;;;;;;;;;;;;11.08;31.85;99462.56;4498492;31;34071;-86
2022/03/05 07:22:40;;;;;;;;;;;;;;;11.01;31.53;99459.00;4498544;31;34660;-84
2022/03/05 07:25:08;;;;;;;;;;;;;;;11.20;31.02;99465.34;4498662;31;33594;-85
2022/03/05 07:27:35;;;;;;;;;;;;;;;10.83;32.15;99456.09;4498262;31;33840;-85
2022/03/05 07:30:03;;;;;;;;;;;;;;;10.95;32.12;99466.69;4497970;31;34022;-85
2022/03/05 07:32:30;;;;;;;;;;;;;;;11.26;31.35;99465.44;4495555;31;33893;-83
2022/03/05 07:34:57;;;;;;;;;;;;;;;11.49;30.47;99460.56;4494714;31;32458;-83
2022/03/05 07:37:25;;;;;;;;;;;;;;;11.21;31.30;99467.06;4484669;31;32915;-83
2022/03/05 07:39:52;;;;;;;;;;;;;;;11.04;32.38;99465.97;4483567;31;34332;-85
2022/03/05 07:42:19;;;;;;;;;;;;;;;11.31;31.48;99470.69;4491422;31;33922;-83
2022/03/05 07:44:48;;;;;;;;;;;;;;;11.24;31.81;99469.72;4491657;31;33406;-83
2022/03/05 07:47:16;;;;;;;;;;;;;;;11.58;31.69;99465.88;4498068;31;33976;-85
2022/03/05 07:49:43;;;;;;;;;;;;;;;11.43;32.74;99465.66;4499628;31;33987;-83
2022/03/05 07:52:11;;;;;;;;;;;;;;;11.68;31.49;99467.75;4500905;31;34510;-89
2022/03/05 07:54:38;;;;;;;;;;;;;;;11.58;31.53;99470.22;4499644;31;34150;-82
2022/03/05 07:57:05;;;;;;;;;;;;;;;12.02;30.96;99469.94;4500350;31;35250;-82
2022/03/05 07:59:32;;;;;;;;;;;;;;;11.74;32.79;99472.16;4500119;31;34358;-82
2022/03/05 08:02:00;;;;;;;;;;;;;;;11.97;31.29;99477.69;4500053;31;34042;-82
2022/03/05 08:04:27;;;;;;;;;;;;;;;12.03;31.37;99476.88;4499367;31;33472;-81
2022/03/05 08:07:15;;;;;;;;;;;;;;;11.81;30.78;99486.09;4488074;31;33891;-81
2022/03/05 08:09:43;;;;;;;;;;;;;;;11.89;31.10;99489.69;4500278;31;34873;-81
2022/03/05 08:12:11;;;;;;;;;;;;;;;11.64;32.06;99486.75;4496037;31;34189;-83
2022/03/05 08:14:38;;;;;;;;;;;;;;;11.49;32.81;99491.72;4498970;31;33621;-82
2022/03/05 08:17:05;;;;;;;;;;;;;;;11.11;32.65;99489.44;4497032;31;34461;-82
2022/03/05 08:19:32;;;;;;;;;;;;;;;11.16;33.00;99492.97;4500413;31;33932;-82
2022/03/05 08:22:19;;;;;;;;;;;;;;;11.98;31.96;99488.94;4499856;31;34389;-82
2022/03/05 08:24:46;;;;;;;;;;;;;;;11.50;33.32;99498.66;4499272;31;33304;-82
2022/03/05 08:27:13;;;;;;;;;;;;;;;11.31;33.42;99491.47;4490985;31;34211;-81
2022/03/05 08:29:41;;;;;;;;;;;;;;;11.22;33.45;99497.41;4494338;31;35321;-85
2022/03/05 08:32:09;;;;;;;;;;;;;;;11.01;35.00;99494.44;4495370;31;33756;-81
2022/03/05 08:34:36;;;;;;;;;;;;;;;11.25;33.62;99491.34;4484697;31;33801;-84
2022/03/05 08:37:04;;;;;;;;;;;;;;;11.11;34.87;99493.75;4484028;32;34225;-82
2022/03/05 08:39:31;;;;;;;;;;;;;;;10.66;34.81;99495.59;4490036;31;34498;-82
2022/03/05 08:41:58;;;;;;;;;;;;;;;10.57;35.21;99503.22;4499854;31;34304;-82
2022/03/05 08:44:25;;;;;;;;;;;;;;;10.78;34.35;99509.62;4498590;31;34033;-83
2022/03/05 08:46:53;;;;;;;;;;;;;;;10.46;35.05;99507.34;4491175;31;34209;-82
2022/03/05 08:49:20;;;;;;;;;;;;;;;9.25;37.38;99510.81;4498824;31;35246;-82
2022/03/05 08:51:50;;;;;;;;;;;;;;;9.21;37.46;99513.28;4499087;31;34495;-84
2022/03/05 08:54:20;;;;;;;;;;;;;;;10.13;36.74;99508.41;4499396;31;33794;-83
2022/03/05 08:56:47;;;;;;;;;;;;;;;10.45;35.55;99497.78;4498051;31;34946;-83
2022/03/05 08:59:15;;;;;;;;;;;;;;;10.13;35.94;99500.63;4499388;31;35249;-83
2022/03/05 09:01:42;;;;;;;;;;;;;;;10.21;36.38;99501.62;4498563;31;34535;-82
2022/03/05 09:04:10;;;;;;;;;;;;;;;10.34;36.60;99501.91;4499011;31;33645;-83
2022/03/05 09:06:38;;;;;;;;;;;;;;;11.01;35.65;99507.41;4499554;31;33544;-83
2022/03/05 09:09:05;;;;;;;;;;;;;;;11.04;35.17;99508.34;4499188;31;34402;-82
2022/03/05 09:11:34;;;;;;;;;;;;;;;11.51;34.31;99508.19;4487528;31;34222;-82
2022/03/05 09:14:01;;;;;;;;;;;;;;;11.25;34.62;99502.62;4498276;31;34269;-84
2022/03/05 09:16:28;;;;;;;;;;;;;;;11.56;33.13;99498.75;4499253;31;34438;-83
2022/03/05 09:18:56;;;;;;;;;;;;;;;11.54;32.67;99497.84;4498944;31;34374;-82
2022/03/05 09:21:23;;;;;;;;;;;;;;;10.38;34.75;99498.53;4495217;31;34163;-86
2022/03/05 09:23:50;;;;;;;;;;;;;;;10.53;34.80;99504.03;4499035;31;33423;-82
2022/03/05 09:26:18;;;;;;;;;;;;;;;10.22;35.18;99500.78;4498187;31;34567;-85
2022/03/05 09:28:45;;;;;;;;;;;;;;;11.36;33.85;99494.97;4498950;31;33963;-83
2022/03/05 09:31:12;;;;;;;;;;;;;;;11.34;32.69;99491.50;4499876;31;34327;-82
2022/03/05 09:33:39;;;;;;;;;;;;;;;11.58;32.95;99493.56;4498448;31;33988;-85
2022/03/05 09:36:06;;;;;;;;;;;;;;;12.07;31.97;99489.91;4499205;31;34597;-82
2022/03/05 09:38:34;;;;;;;;;;;;;;;11.62;32.13;99492.75;4497885;31;33852;-83
2022/03/05 09:41:02;;;;;;;;;;;;;;;11.01;32.47;99503.09;4498658;31;34641;-82
2022/03/05 09:43:29;;;;;;;;;;;;;;;11.29;33.19;99498.34;4498230;31;33862;-84
2022/03/05 09:45:58;;;;;;;;;;;;;;;9.69;34.48;99503.16;4498019;31;33899;-81
2022/03/05 09:48:26;;;;;;;;;;;;;;;10.73;32.35;99493.13;4497389;31;35188;-82
2022/03/05 09:50:54;;;;;;;;;;;;;;;10.14;32.33;99484.22;4498501;31;34989;-82
2022/03/05 09:53:21;;;;;;;;;;;;;;;9.87;34.34;99494.03;4495833;31;34017;-83
2022/03/05 09:55:49;;;;;;;;;;;;;;;10.58;32.48;99492.00;4497978;31;34164;-83
2022/03/05 09:58:36;;;;;;;;;;;;;;;10.88;30.78;99496.84;4498648;31;34248;-82
2022/03/05 10:01:04;;;;;;;;;;;;;;;10.50;32.69;99488.41;4499134;31;34503;-82
2022/03/05 10:03:41;;;;;;;;;;;;;;;10.09;32.71;99485.00;4499235;31;33427;-80
2022/03/05 10:06:15;;;;;;;;;;;;;;;9.65;32.31;99492.72;4495975;31;33583;-81
2022/03/05 10:08:45;;;;;;;;;;;;;;;9.77;32.64;99494.69;4498676;31;34243;-82
2022/03/05 10:11:13;;;;;;;;;;;;;;;9.12;34.49;99495.81;4496727;31;33872;-82
2022/03/05 10:13:41;;;;;;;;;;;;;;;9.04;34.81;99496.50;4497012;31;33546;-82
2022/03/05 10:16:29;;;;;;;;;;;;;;;9.29;32.65;99488.47;4499242;31;33894;-81
2022/03/05 10:18:57;;;;;;;;;;;;;;;9.50;32.87;99495.84;4499153;31;35171;-82
2022/03/05 10:21:28;;;;;;;;;;;;;;;9.75;32.64;99482.59;4499309;31;33840;-82
2022/03/05 10:24:09;;;;;;;;;;;;;;;10.55;30.58;99476.38;4498431;31;32668;-82
2022/03/05 10:26:55;;;;;;;;;;;;;;;10.56;30.92;99480.72;4499199;31;33891;-82
2022/03/05 10:29:23;;;;;;;;;;;;;;;10.04;32.27;99471.06;4499157;31;33957;-82
2022/03/05 10:31:54;;;;;;;;;;;;;;;9.43;34.05;99488.75;4499248;31;35004;-81
2022/03/05 10:34:22;;;;;;;;;;;;;;;10.09;31.70;99477.22;4499345;31;33323;-84
2022/03/05 10:36:59;;;;;;;;;;;;;;;10.74;31.07;99477.59;4499126;31;34242;-81
2022/03/05 10:39:26;;;;;;;;;;;;;;;10.60;30.73;99479.94;4495931;31;34012;-82
2022/03/05 10:41:57;;;;;;;;;;;;;;;11.25;29.69;99480.97;4497453;31;34360;-82
2022/03/05 10:44:24;;;;;;;;;;;;;;;11.01;29.99;99476.28;4498720;31;33613;-82
2022/03/05 10:46:54;;;;;;;;;;;;;;;10.49;30.71;99476.25;4498928;31;34087;-84
2022/03/05 10:49:23;;;;;;;;;;;;;;;9.55;32.28;99475.25;4497918;31;33123;-82
2022/03/05 10:51:51;;;;;;;;;;;;;;;9.82;30.82;99470.66;4497823;31;34980;-81
2022/03/05 10:54:29;;;;;;;;;;;;;;;9.85;31.27;99475.91;4498446;31;34223;-83
2022/03/05 10:57:13;;;;;;;;;;;;;;;10.17;30.88;99463.56;4496205;31;34971;-83
2022/03/05 10:59:44;;;;;;;;;;;;;;;12.13;28.12;99460.53;4497416;31;34248;-83
2022/03/05 11:02:11;;;;;;;;;;;;;;;11.45;28.47;99463.97;4498316;31;34023;-82
2022/03/05 11:04:44;;;;;;;;;;;;;;;11.49;27.81;99459.72;4498875;31;33130;-82
2022/03/05 11:07:12;;;;;;;;;;;;;;;11.20;28.60;99462.75;4498572;31;33886;-82
2022/03/05 11:09:40;;;;;;;;;;;;;;;10.36;29.78;99458.75;4497804;31;35102;-82
2022/03/05 11:12:08;;;;;;;;;;;;;;;10.95;28.86;99464.09;4498151;31;33966;-81
2022/03/05 11:14:36;;;;;;;;;;;;;;;11.39;28.54;99463.88;4497535;31;33454;-82
2022/03/05 11:17:04;;;;;;;;;;;;;;;11.42;27.95;99459.63;4498847;31;34252;-83
2022/03/05 11:19:31;;;;;;;;;;;;;;;11.72;28.50;99460.00;4498949;31;33724;-81
2022/03/05 11:21:59;;;;;;;;;;;;;;;11.82;27.50;99454.06;4497369;31;34121;-82
2022/03/05 11:24:26;;;;;;;;;;;;;;;11.99;27.69;99457.78;4498689;31;33424;-81
2022/03/05 11:26:54;;;;;;;;;;;;;;;11.76;27.62;99449.69;4497456;31;34225;-81
2022/03/05 11:29:54;;;;;;;;;;;;;;;12.12;27.40;99444.09;4497645;31;34522;-81
2022/03/05 11:32:21;;;;;;;;;;;;;;;12.41;27.29;99435.69;4491141;31;33776;-85
2022/03/05 11:34:49;;;;;;;;;;;;;;;11.68;29.12;99446.97;4494528;31;33426;-81
2022/03/05 11:37:17;;;;;;;;;;;;;;;12.18;27.68;99444.13;4498316;31;33977;-81
2022/03/05 11:39:44;;;;;;;;;;;;;;;11.63;27.44;99438.28;4493374;31;34210;-82
2022/03/05 11:42:14;;;;;;;;;;;;;;;11.41;27.59;99431.06;4497113;31;34813;-81
2022/03/05 11:44:42;;;;;;;;;;;;;;;12.78;25.67;99428.22;4497116;31;33227;-81
2022/03/05 11:47:18;;;;;;;;;;;;;;;12.65;26.63;99435.03;4498558;31;34084;-81
2022/03/05 11:49:55;;;;;;;;;;;;;;;12.72;25.94;99433.38;4497267;31;33602;-81
2022/03/05 11:52:22;;;;;;;;;;;;;;;11.89;26.54;99427.34;4498261;31;34380;-85
2022/03/05 11:55:10;;;;;;;;;;;;;;;12.48;26.38;99421.91;4498653;31;33251;-81
2022/03/05 11:57:52;;;;;;;;;;;;;;;11.74;27.80;99415.00;4498179;31;33882;-81
2022/03/05 12:00:27;;;;;;;;;;;;;;;12.51;26.65;99419.31;4498484;31;35281;-81
2022/03/05 12:02:56;;;;;;;;;;;;;;;10.96;29.04;99421.75;4490866;31;34796;-81
2022/03/05 12:05:32;;;;;;;;;;;;;;;12.61;26.85;99420.25;4485266;31;33334;-80
2022/03/05 12:08:00;;;;;;;;;;;;;;;11.75;27.13;99416.78;4497305;31;34114;-81
2022/03/05 12:10:28;;;;;;;;;;;;;;;12.42;26.78;99408.81;4492942;31;35158;-81
2022/03/05 12:12:56;;;;;;;;;;;;;;;12.63;25.82;99414.22;4482386;32;34036;-86
2022/03/05 12:15:33;;;;;;;;;;;;;;;12.34;26.73;99419.16;4488686;31;34087;-81
2022/03/05 12:18:01;;;;;;;;;;;;;;;12.11;27.37;99407.66;4497134;31;34875;-80
2022/03/05 12:20:32;;;;;;;;;;;;;;;12.77;26.96;99410.88;4498104;31;33889;-81
2022/03/05 12:23:05;;;;;;;;;;;;;;;12.99;26.87;99402.34;4497759;31;35002;-81
2022/03/05 12:25:33;;;;;;;;;;;;;;;12.76;27.64;99406.50;4498029;31;34290;-80
2022/03/05 12:28:02;;;;;;;;;;;;;;;13.67;26.16;99397.53;4496611;31;33855;-82
2022/03/05 12:30:33;;;;;;;;;;;;;;;12.52;27.30;99408.06;4497636;31;34274;-81
2022/03/05 12:33:01;;;;;;;;;;;;;;;10.83;28.96;99412.88;4497694;31;34281;-81
2022/03/05 12:35:29;;;;;;;;;;;;;;;12.48;26.55;99405.44;4483090;31;32842;-82
2022/03/05 12:37:57;;;;;;;;;;;;;;;12.84;26.54;99404.84;4482670;32;33934;-81
2022/03/05 12:40:26;;;;;;;;;;;;;;;12.76;26.70;99406.50;4484505;32;34115;-82
2022/03/05 12:42:53;;;;;;;;;;;;;;;12.94;26.76;99401.44;4484348;32;34607;-81
2022/03/05 12:45:24;;;;;;;;;;;;;;;13.66;25.57;99399.28;4483250;32;33074;-80
2022/03/05 12:47:53;;;;;;;;;;;;;;;12.69;25.88;99407.31;4484019;32;35048;-80
2022/03/05 12:50:24;;;;;;;;;;;;;;;12.26;26.47;99409.56;4484090;32;34472;-80
2022/03/05 12:52:54;;;;;;;;;;;;;;;13.21;25.46;99398.16;4484407;32;34167;-82
2022/03/05 12:55:22;;;;;;;;;;;;;;;13.24;26.46;99394.72;4482998;32;33271;-81
2022/03/05 12:57:49;;;;;;;;;;;;;;;11.56;27.94;99401.81;4458870;32;787112;-81